Weymouth, Canada
Current Conditions -  °F | °C
As of 7:00 AM on Sunday 23 Nov 2014 (Local Time) from CYQI Reporting Station
Overcast Overcast  
Wind Chill: 40°   Ceiling: 3000
Heat Index: 46°   Visibility: 9mi
Dew Point: 41°   Wind: 16mph
Humidity: 81%   Direction: 270°W
Pressure: 30"   Gusts: 26mph
Location:  44.42°N, 65.98°W
Report Text: CYQI 231100Z 27014G23KT 9SM OVC030 08/05 A3000 RMK SC8 SLP159
Loading
Personal Weather Stations






























Interactive Weather Map New forecast layout! Learn more

10-Day Weather Forecast

Advertisements
Track Severe Weather on mobile